Bei Facebook empfehlenBei Twitter postenGoogle plusPinterest

Das Wetter im Erzgebirge am 17.07.2015

Wetter und Klima am 17.07.2015 Holzhau im Erzgebirge (630m ü.NN)
Letzte gemessene Temperatur und Uhrzeit der Messung23:45:00 Uhr19.40 °C
Temperatur (Maximum / Höchstwert) und Uhrzeit der Messung16:30:00 Uhr30.90 °C
Temperatur (Minimum / Tiefstwert) und Uhrzeit der Messung05:30:0012.10 °C
Errechneter Absolutwert der Temperaturschwankungen zwischen Tmin und Tmax des Tages18.80 K
Errechnete Tagesmitteltemperatur22.58438 °C
Gesamt - Niederschlag des Tages (in flüssiger Form)0.00 Liter / m²
Luftdruck (Maximum / Höchstwert) und Zeitpunkt der Messung00:15:00 Uhr1017.60 hPa
Luftdruck (Minimum / Tiefstwert) und Zeitpunkt der Messung21:00:00 Uhr1015.00 hPa
Errechneter Absolutwert der Luftdruckschwankungen des Tages2.60 hPa
Höchste gemessene Windgeschwindigkeit und Uhrzeit der Messung11:00:00 Uhr10.08 km/h
Errechnete Windhäufigkeit in Relation zu den Messwerten des Tages14.58333 %
Niedrigste Windkühle (Windchill) und Zeitpunkt der Messung05:30:00 Uhr12.10 °C
Taupunkt (Maximum / Höchstwert) und Uhrzeit der Messung14:15:00 Uhr18.70 °C
Taupunkt (Minimum / Tiefstwert) und Uhrzeit der Messung03:30:0010.50 °C
Anzahl der automatisch eingelesenen Messwerte 96

Detaillierte Wetter- und Klima- Messwerte für den 17.07.2015 in Holzhau im Erzgebirge (630m ü.NN)
ZeitTemperaturLuftdruckRel. LuftfeuchteWindWindrichtungWindchillTaupunktNiederschlag l/m²
23:45:0019.40 °C1015.60 hPa71.00 %14.00 °C 
23:30:0019.90 °C1015.70 hPa70.00 %14.30 °C 
23:15:0020.10 °C1015.70 hPa69.00 %14.20 °C 
23:00:0020.60 °C1015.70 hPa66.00 %14.00 °C 
22:45:0021.00 °C1016.10 hPa65.00 %14.20 °C 
22:30:0021.30 °C1015.90 hPa64.00 %14.20 °C 
22:15:0021.60 °C1015.90 hPa63.00 %14.30 °C 
22:00:0021.80 °C1015.80 hPa63.00 %14.40 °C 
21:45:0022.30 °C1015.60 hPa62.00 %14.70 °C 
21:30:0023.10 °C1015.50 hPa58.00 %14.40 °C 
21:15:0023.40 °C1015.20 hPa58.00 %14.70 °C 
21:00:0024.20 °C1015.00 hPa57.00 %15.10 °C 
20:45:0024.90 °C1015.00 hPa57.00 %15.80 °C 
20:30:0025.80 °C1015.00 hPa55.00 %16.10 °C 
20:15:0026.50 °C1015.00 hPa53.00 %16.10 °C 
20:00:0027.40 °C1015.00 hPa51.00 %16.40 °C 
19:45:0027.90 °C1015.20 hPa49.00 %16.20 °C 
19:30:0028.30 °C1015.10 hPa48.00 %16.20 °C 
19:15:0028.50 °C1015.20 hPa48.00 %16.40 °C 
19:00:0028.80 °C1015.10 hPa47.00 %16.40 °C 
18:45:0029.10 °C1015.20 hPa47.00 %16.60 °C 
18:30:0029.30 °C1015.30 hPa47.00 %5.40 km/hSSO31.70 °C16.80 °C 
18:15:0029.60 °C1015.40 hPa45.00 %3.96 km/hO29.60 °C16.40 °C 
18:00:0029.80 °C1015.60 hPa45.00 %16.60 °C 
17:45:0030.10 °C1015.70 hPa46.00 %17.20 °C 
17:30:0030.40 °C1015.70 hPa45.00 %9.72 km/hSSO33.00 °C17.10 °C 
17:15:0030.60 °C1015.80 hPa44.00 %8.28 km/hSW33.20 °C17.00 °C 
17:00:0030.60 °C1016.00 hPa43.00 %16.60 °C 
16:45:0030.60 °C1016.10 hPa45.00 %17.30 °C 
16:30:0030.90 °C1016.40 hPa45.00 %17.60 °C 
16:15:0030.80 °C1016.50 hPa47.00 %18.20 °C 
16:00:0030.90 °C1016.60 hPa44.00 %17.20 °C 
15:45:0030.40 °C1017.00 hPa46.00 %17.50 °C 
15:30:0029.50 °C1016.80 hPa48.00 %17.30 °C 
15:15:0029.50 °C1017.00 hPa49.00 %3.60 km/hSSW29.50 °C17.70 °C 
15:00:0028.90 °C1017.20 hPa50.00 %17.40 °C 
14:45:0029.10 °C1017.50 hPa49.00 %17.30 °C 
14:30:0029.90 °C1017.40 hPa48.00 %3.60 km/hWSW29.90 °C17.70 °C 
14:15:0029.60 °C1017.40 hPa52.00 %18.70 °C 
14:00:0028.40 °C1017.20 hPa52.00 %17.60 °C 
13:45:0028.40 °C1017.40 hPa49.00 %7.92 km/hSSW30.60 °C16.70 °C 
13:30:0029.20 °C1017.30 hPa46.00 %3.60 km/hWSW29.20 °C16.40 °C 
13:15:0029.80 °C1017.20 hPa49.00 %5.04 km/hWSW32.20 °C17.90 °C 
13:00:0029.60 °C1017.10 hPa49.00 %17.80 °C 
12:45:0030.10 °C1017.20 hPa45.00 %16.90 °C 
12:30:0030.90 °C1017.30 hPa48.00 %1.80 km/hWNW30.90 °C18.60 °C 
12:15:0029.90 °C1017.20 hPa51.00 %18.70 °C 
12:00:0029.70 °C1017.20 hPa51.00 %18.50 °C 
11:45:0029.40 °C1017.10 hPa52.00 %2.52 km/hNW29.40 °C18.50 °C 
11:30:0029.50 °C1016.90 hPa51.00 %5.04 km/hSSW31.90 °C18.30 °C 
11:15:0029.20 °C1016.90 hPa51.00 %18.00 °C 
11:00:0028.90 °C1017.00 hPa54.00 %10.08 km/hSW31.20 °C18.70 °C 
10:45:0027.90 °C1016.80 hPa57.00 %18.60 °C 
10:30:0027.30 °C1016.70 hPa58.00 %18.30 °C 
10:15:0027.10 °C1016.90 hPa58.00 %18.10 °C 
10:00:0027.10 °C1016.70 hPa60.00 %18.70 °C 
09:45:0026.40 °C1016.70 hPa62.00 %18.50 °C 
09:30:0025.60 °C1016.80 hPa64.00 %18.30 °C 
09:15:0025.30 °C1017.10 hPa64.00 %18.00 °C 
09:00:0025.30 °C1016.90 hPa67.00 %18.70 °C 
08:45:0024.30 °C1016.80 hPa70.00 %18.50 °C 
08:30:0024.00 °C1016.90 hPa72.00 %18.60 °C 
08:15:0022.90 °C1016.70 hPa75.00 %18.20 °C 
08:00:0022.00 °C1016.80 hPa78.00 %18.00 °C 
07:45:0020.60 °C1016.90 hPa82.00 %17.40 °C 
07:30:0018.60 °C1017.10 hPa89.00 %16.80 °C 
07:15:0015.80 °C1016.80 hPa92.00 %14.50 °C 
07:00:0014.40 °C1016.90 hPa92.00 %13.10 °C 
06:45:0013.90 °C1017.00 hPa91.00 %12.50 °C 
06:30:0013.50 °C1016.90 hPa91.00 %12.10 °C 
06:15:0013.00 °C1016.90 hPa92.00 %11.70 °C 
06:00:0012.50 °C1016.50 hPa91.00 %11.10 °C 
05:45:0012.30 °C1016.60 hPa91.00 %10.90 °C 
05:30:0012.10 °C1016.60 hPa91.00 %10.70 °C 
05:15:0012.30 °C1016.60 hPa91.00 %10.90 °C 
05:00:0012.30 °C1016.70 hPa91.00 %10.90 °C 
04:45:0012.30 °C1016.70 hPa90.00 %10.70 °C 
04:30:0012.30 °C1016.70 hPa90.00 %10.70 °C 
04:15:0012.20 °C1017.00 hPa90.00 %10.60 °C 
04:00:0012.20 °C1016.90 hPa90.00 %10.60 °C 
03:45:0012.30 °C1017.10 hPa90.00 %10.70 °C 
03:30:0012.30 °C1017.10 hPa89.00 %10.50 °C 
03:15:0012.40 °C1017.10 hPa89.00 %10.60 °C 
03:00:0012.80 °C1017.10 hPa88.00 %10.90 °C 
02:45:0013.30 °C1017.20 hPa88.00 %11.40 °C 
02:30:0013.40 °C1017.30 hPa89.00 %11.60 °C 
02:15:0013.30 °C1017.30 hPa89.00 %11.50 °C 
02:00:0013.30 °C1017.20 hPa89.00 %11.50 °C 
01:45:0013.30 °C1017.40 hPa88.00 %11.40 °C 
01:30:0013.40 °C1017.40 hPa88.00 %11.50 °C 
01:15:0013.60 °C1017.40 hPa88.00 %2.52 km/hSO13.60 °C11.70 °C 
01:00:0013.80 °C1017.40 hPa88.00 %11.80 °C 
00:45:0013.90 °C1017.50 hPa88.00 %11.90 °C 
00:30:0013.90 °C1017.50 hPa88.00 %11.90 °C 
00:15:0013.90 °C1017.60 hPa87.00 %11.80 °C 
00:00:0014.30 °C1017.60 hPa86.00 %12.00 °C 

Permanenter Link zu dieser Seite: Wetter im Erzgebirge am 17.07.2015
Performance-Info: Die Erstellung der Seite / Statistik(en) / Tabelle(n) erforderte 5 Datenbankserver-Abfrage(n) und dauerte 124 Millisekunden. (Dieser Messwert ist von der Gesamt-Auslastung des Servers abhängig.)
Erzgebirge - Wetter | Erzgebirge - Wetter (Mobilgeräte) | Komplette Klimadatenbank